Wind Cave National Park, SD

3:24 AM MDT on July 28, 2016 (GMT -0600)
Hay Creek Road | | Change Station

Elev 5325 ft 43.70 °N, 103.67 °W | Updated 5 seconds ago

Heavy Thunderstorms and Rain
Heavy Thunderstorm Rain Mist
57.6 °F
Feels Like 57.6 °F
N
0.4
Wind Variable Wind from WSW
Gusts 2.5 mph

Today
High -- | Low -- °F
--% Chance of Precip.
Yesterday
High -- | Low -- °F
Precip. -- in
Pressure 30.34 in
Visibility 4.0 miles
Clouds Few 4400 ft
Mostly Cloudy 5500 ft
Overcast 7000 ft
Dew Point 57 °F
Humidity 99%
Rainfall 0.30 in
Snow Depth Not available.
5:39 AM 8:21 PM
Waning Crescent, 34% visible
SPECI KCUT 280915Z AUTO 26008KT 4SM +TSRA BR FEW044 BKN055 OVC070 14/12 A3034 RMK AO2 LTG DSNT S-NW TSB15 P0007 T01390122 $
Pressure 30.34 in
Visibility 4.0 miles
Clouds Few 4400 ft
Mostly Cloudy 5500 ft
Overcast 7000 ft
Dew Point 57 °F
Humidity 99%
Rainfall 0.30 in
Snow Depth Not available.
5:39 AM 8:21 PM
Waning Crescent, 34% visible
SPECI KCUT 280915Z AUTO 26008KT 4SM +TSRA BR FEW044 BKN055 OVC070 14/12 A3034 RMK AO2 LTG DSNT S-NW TSB15 P0007 T01390122 $

10-Day Weather Forecast

Almanac

Astronomy

Jul. 28, 2016 Rise Set
Actual Time
Civil Twilight
Nautical Twilight
Astronomical Twilight
Moon
Length of Visible Light
Length of Day
Tomorrow will be .
, % of the Moon is Illuminated

Today's Extremes

State Highs State Lows

Community

WunderPhotos

Upload Photos

1,928,070 photos uploaded!

WunderBlog® & News

Nearby

Air Quality

  Air Quality AQ Index Pollutant
Not available.

Snow Depth

Station Depth Elevation

Earthquake Activity

City Distance Mag. Time & Date
Minimum magnitude displayed is 2.5.

Coastal Water Temperatures

Place Temperature

Stations

Nearby Weather Stations

Station Location Temp. Windchill Dew Point Humidity Wind Precip. Elev Updated Type
                   

Watches & Warnings

There are currently no watches in effect.